Time;durP1;ratioP1;P1;durP2;ratioP2;P2;SDS_P1;SDS_P2;PMS_P1;PMS_P2;Temp;Humidity;BMP_temperature;BMP_pressure;BME280_temperature;BME280_humidity;BME280_pressure;Samples;Min_cycle;Max_cycle;Signal;HPM_P1;HPM_P2
2022/09/27 00:01:14;;;;;;;7.10;1.02;;;10.10;99.90;;;;;;5032154;28;20048;-82
2022/09/27 00:03:40;;;;;;;7.07;0.90;;;10.00;99.90;;;;;;5008308;28;20045;-81
2022/09/27 00:06:06;;;;;;;3.60;0.50;;;9.90;99.90;;;;;;5022421;28;20041;-82
2022/09/27 00:08:33;;;;;;;7.32;0.60;;;9.80;99.90;;;;;;5006605;28;20049;-81
2022/09/27 00:11:22;;;;;;;4.18;0.60;;;9.80;99.90;;;;;;5001168;28;20399;-83
2022/09/27 00:13:48;;;;;;;3.55;0.60;;;9.70;99.90;;;;;;5007527;28;20128;-82
2022/09/27 00:16:13;;;;;;;10.13;0.70;;;9.60;99.90;;;;;;5037981;28;20120;-81
2022/09/27 00:18:39;;;;;;;4.38;0.82;;;9.50;99.90;;;;;;5025971;28;20052;-81
2022/09/27 00:21:08;;;;;;;1.95;0.50;;;9.50;99.90;;;;;;4989853;28;20046;-82
2022/09/27 00:23:34;;;;;;;2.10;0.45;;;9.40;99.90;;;;;;5025165;28;20241;-83
2022/09/27 00:26:00;;;;;;;2.95;0.43;;;9.30;99.90;;;;;;5001316;28;20052;-81
2022/09/27 00:28:26;;;;;;;0.45;0.38;;;9.30;99.90;;;;;;5016975;28;20136;-82
2022/09/27 00:30:52;;;;;;;3.25;0.38;;;9.30;99.90;;;;;;5017077;28;20064;-82
2022/09/27 00:33:18;;;;;;;5.85;0.73;;;9.20;99.90;;;;;;5035677;28;20483;-82
2022/09/27 00:35:44;;;;;;;2.22;0.70;;;9.20;99.90;;;;;;5005725;28;20060;-82
2022/09/27 00:38:10;;;;;;;3.20;0.47;;;9.10;99.90;;;;;;5004007;28;20045;-82
2022/09/27 00:40:36;;;;;;;4.15;0.43;;;9.10;99.90;;;;;;5017031;28;20161;-82
2022/09/27 00:43:04;;;;;;;4.03;0.75;;;9.10;99.90;;;;;;5022960;28;20502;-81
2022/09/27 00:45:30;;;;;;;4.45;0.35;;;9.10;99.90;;;;;;5034711;28;20049;-86
2022/09/27 00:48:00;;;;;;;3.13;0.93;;;9.10;99.90;;;;;;5017151;28;20048;-81
2022/09/27 00:50:34;;;;;;;2.22;0.40;;;9.10;99.90;;;;;;5030101;28;20045;-81
2022/09/27 00:53:25;;;;;;;2.35;1.08;;;9.10;99.90;;;;;;5007460;28;20087;-82
2022/09/27 00:56:01;;;;;;;4.40;1.07;;;9.10;99.90;;;;;;5007664;28;20049;-83
2022/09/27 00:58:36;;;;;;;2.40;0.80;;;9.10;99.90;;;;;;5024773;28;20365;-83
2022/09/27 01:01:06;;;;;;;8.30;1.52;;;9.10;99.90;;;;;;5012858;28;20465;-84
2022/09/27 01:04:04;;;;;;;3.45;0.30;;;9.20;99.90;;;;;;5017404;28;20095;-81
2022/09/27 01:06:29;;;;;;;5.32;0.50;;;9.20;99.90;;;;;;5020330;28;20451;-83
2022/09/27 01:08:55;;;;;;;2.97;0.40;;;9.30;99.90;;;;;;5034468;28;20049;-82
2022/09/27 01:11:39;;;;;;;2.75;0.40;;;9.30;99.90;;;;;;5038084;28;20044;-82
2022/09/27 01:14:24;;;;;;;1.83;0.40;;;9.30;99.90;;;;;;5022045;28;20045;-81
2022/09/27 01:17:25;;;;;;;3.42;0.63;;;9.40;99.90;;;;;;5017948;28;20396;-83
2022/09/27 01:20:07;;;;;;;3.03;0.30;;;9.40;99.90;;;;;;4987186;28;20057;-82
2022/09/27 01:22:44;;;;;;;2.95;0.73;;;9.40;99.90;;;;;;5033110;28;20495;-82
2022/09/27 01:25:13;;;;;;;1.23;0.30;;;9.40;99.90;;;;;;5015880;28;21008;-84
2022/09/27 01:28:19;;;;;;;4.15;0.38;;;9.40;99.90;;;;;;5001760;28;20071;-81
2022/09/27 01:31:00;;;;;;;1.88;0.20;;;9.50;99.90;;;;;;5030170;28;20064;-83
2022/09/27 01:34:24;;;;;;;1.25;0.40;;;9.50;99.90;;;;;;5032925;28;20437;-87
2022/09/27 01:37:05;;;;;;;3.38;0.40;;;9.50;99.90;;;;;;4996924;28;20126;-83
2022/09/27 01:40:05;;;;;;;0.73;0.30;;;9.40;99.90;;;;;;5004902;28;20064;-86
2022/09/27 01:42:40;;;;;;;2.17;0.25;;;9.40;99.90;;;;;;4990664;28;20053;-82
2022/09/27 01:45:13;;;;;;;4.43;0.38;;;9.40;99.90;;;;;;5009515;28;20052;-83
2022/09/27 01:47:48;;;;;;;4.90;1.05;;;9.40;99.90;;;;;;5014930;28;20053;-83
2022/09/27 01:50:37;;;;;;;2.70;0.60;;;9.40;99.90;;;;;;5038815;28;20415;-83
2022/09/27 01:53:38;;;;;;;3.88;0.57;;;9.40;99.90;;;;;;5033118;28;20084;-83
2022/09/27 01:56:09;;;;;;;1.42;0.55;;;9.30;99.90;;;;;;4987127;28;20143;-83
2022/09/27 01:58:58;;;;;;;2.83;0.57;;;9.30;99.90;;;;;;5037844;28;20444;-83
2022/09/27 02:01:27;;;;;;;0.65;0.40;;;9.20;99.90;;;;;;5017937;28;20052;-83
2022/09/27 02:03:56;;;;;;;3.55;0.35;;;9.20;99.90;;;;;;5018914;28;20143;-85
2022/09/27 02:06:28;;;;;;;1.95;0.28;;;9.20;99.90;;;;;;5032750;28;20052;-82
2022/09/27 02:09:04;;;;;;;2.58;0.25;;;9.10;99.90;;;;;;5030884;28;20285;-87
2022/09/27 02:11:30;;;;;;;2.75;0.63;;;9.10;99.90;;;;;;5034479;28;20047;-82
2022/09/27 02:14:17;;;;;;;4.40;0.40;;;9.10;99.90;;;;;;5031374;28;20614;-81
2022/09/27 02:16:58;;;;;;;2.95;0.40;;;9.10;99.90;;;;;;5037389;28;20049;-83
2022/09/27 02:19:35;;;;;;;1.00;0.20;;;9.10;99.90;;;;;;5017735;28;20041;-83
2022/09/27 02:22:49;;;;;;;2.33;0.47;;;9.00;99.90;;;;;;5020136;28;20042;-81
2022/09/27 02:25:54;;;;;;;1.00;0.30;;;9.10;99.90;;;;;;5004760;28;20057;-81
2022/09/27 02:28:25;;;;;;;1.20;0.50;;;9.10;99.90;;;;;;5030908;28;20139;-84
2022/09/27 02:30:51;;;;;;;2.17;0.30;;;9.10;99.90;;;;;;5018708;28;20098;-82
2022/09/27 02:33:21;;;;;;;1.77;0.47;;;9.20;99.90;;;;;;5019533;28;20404;-83
2022/09/27 02:35:47;;;;;;;3.40;0.32;;;9.20;99.90;;;;;;5019453;28;20066;-82
2022/09/27 02:38:12;;;;;;;5.78;2.42;;;9.20;99.90;;;;;;5020937;28;20439;-82
2022/09/27 02:40:46;;;;;;;1.77;0.45;;;9.30;99.90;;;;;;5032925;28;21356;-86
2022/09/27 02:43:16;;;;;;;4.15;0.55;;;9.30;99.90;;;;;;5014198;28;20049;-82
2022/09/27 02:45:57;;;;;;;1.67;0.30;;;9.30;99.90;;;;;;5020374;28;20048;-82
2022/09/27 02:48:55;;;;;;;1.25;0.30;;;9.30;99.90;;;;;;5016674;28;20570;-82
2022/09/27 02:52:01;;;;;;;2.88;0.40;;;9.30;99.90;;;;;;5004202;28;20041;-82
2022/09/27 02:54:56;;;;;;;0.30;0.25;;;9.30;99.90;;;;;;5015260;28;20081;-83
2022/09/27 02:57:50;;;;;;;2.45;0.47;;;9.30;99.90;;;;;;4968156;28;20396;-82
2022/09/27 03:00:19;;;;;;;1.50;0.30;;;9.20;99.90;;;;;;5041960;28;20045;-82
2022/09/27 03:02:50;;;;;;;9.00;0.95;;;9.20;99.90;;;;;;5039034;28;20080;-82
2022/09/27 03:05:26;;;;;;;3.00;0.63;;;9.10;99.90;;;;;;4999926;28;20041;-81
2022/09/27 03:07:51;;;;;;;0.73;0.28;;;9.10;99.90;;;;;;5001822;28;20063;-83
2022/09/27 03:10:20;;;;;;;2.75;0.40;;;9.10;99.90;;;;;;5048251;28;20052;-87
2022/09/27 03:12:46;;;;;;;8.23;0.45;;;9.10;99.90;;;;;;5003196;28;20045;-81
2022/09/27 03:15:12;;;;;;;2.55;0.20;;;9.10;99.90;;;;;;5032122;28;20468;-81
2022/09/27 03:17:38;;;;;;;2.08;0.28;;;9.10;99.90;;;;;;5024243;28;20072;-82
2022/09/27 03:20:05;;;;;;;0.32;0.20;;;9.10;99.90;;;;;;5039149;28;20049;-81
2022/09/27 03:22:31;;;;;;;0.25;0.20;;;9.10;99.90;;;;;;5047108;28;20085;-83
2022/09/27 03:24:57;;;;;;;3.13;0.20;;;9.00;99.90;;;;;;5034164;28;20545;-81
2022/09/27 03:27:23;;;;;;;1.10;0.30;;;9.00;99.90;;;;;;5011207;28;20095;-82
2022/09/27 03:29:49;;;;;;;0.90;0.17;;;9.00;99.90;;;;;;5047196;28;20057;-82
2022/09/27 03:32:15;;;;;;;2.25;0.20;;;9.00;99.90;;;;;;5016392;28;20048;-82
2022/09/27 03:34:41;;;;;;;1.60;0.38;;;9.00;99.90;;;;;;5027595;28;20049;-82
2022/09/27 03:37:07;;;;;;;2.22;0.40;;;9.00;99.90;;;;;;5041262;28;20062;-82
2022/09/27 03:39:33;;;;;;;1.95;0.38;;;9.00;99.90;;;;;;5015150;28;20125;-81
2022/09/27 03:41:59;;;;;;;1.20;0.32;;;8.90;99.90;;;;;;5034020;28;20057;-82
2022/09/27 03:44:24;;;;;;;0.95;0.20;;;8.90;99.90;;;;;;5033616;28;21812;-82
2022/09/27 03:46:50;;;;;;;0.40;0.20;;;8.90;99.90;;;;;;5047712;28;20059;-82
2022/09/27 03:49:16;;;;;;;0.43;0.10;;;8.80;99.90;;;;;;5031026;28;20053;-82
2022/09/27 03:51:42;;;;;;;1.73;0.30;;;8.80;99.90;;;;;;5029024;28;20512;-82
2022/09/27 03:54:08;;;;;;;1.85;0.20;;;8.80;99.90;;;;;;5025286;28;20513;-82
2022/09/27 03:56:34;;;;;;;2.38;0.30;;;8.80;99.90;;;;;;5002496;28;20431;-84
2022/09/27 03:59:00;;;;;;;2.58;0.30;;;8.70;99.90;;;;;;5038482;28;20056;-82
2022/09/27 04:01:27;;;;;;;1.63;0.40;;;8.70;99.90;;;;;;5025165;28;20115;-83
2022/09/27 04:03:53;;;;;;;2.80;0.38;;;8.70;99.90;;;;;;5031285;28;20052;-82
2022/09/27 04:06:19;;;;;;;1.27;0.20;;;8.70;99.90;;;;;;5042282;28;20312;-82
2022/09/27 04:08:45;;;;;;;2.42;0.45;;;8.70;99.90;;;;;;5022312;28;20052;-82
2022/09/27 04:11:11;;;;;;;4.05;0.50;;;8.80;99.90;;;;;;5016012;28;20042;-81
2022/09/27 04:13:36;;;;;;;0.90;0.35;;;8.70;99.90;;;;;;5044680;28;20045;-82
2022/09/27 04:16:02;;;;;;;0.73;0.30;;;8.80;99.90;;;;;;5030661;28;20672;-82
2022/09/27 04:18:28;;;;;;;5.25;0.50;;;8.80;99.90;;;;;;5016514;28;20041;-82
2022/09/27 04:20:54;;;;;;;1.08;0.60;;;8.70;99.90;;;;;;5040649;28;20045;-82
2022/09/27 04:23:20;;;;;;;7.03;0.40;;;8.70;99.90;;;;;;5025371;28;20056;-81
2022/09/27 04:25:46;;;;;;;3.53;0.30;;;8.70;99.90;;;;;;5039312;28;20049;-82
2022/09/27 04:28:12;;;;;;;2.47;0.40;;;8.70;99.90;;;;;;5027702;28;20043;-82
2022/09/27 04:30:38;;;;;;;3.70;0.50;;;8.70;99.90;;;;;;5031005;28;20037;-82
2022/09/27 04:33:04;;;;;;;0.82;0.30;;;8.60;99.90;;;;;;5011052;28;20513;-81
2022/09/27 04:38:14;;;;;;;8.70;2.72;;;8.60;99.90;;;;;;5028957;28;20396;-83
2022/09/27 04:40:40;;;;;;;1.58;0.40;;;8.60;99.90;;;;;;5005240;28;20061;-82
2022/09/27 04:43:06;;;;;;;1.35;0.30;;;8.60;99.90;;;;;;5018140;28;20053;-82
2022/09/27 04:45:32;;;;;;;2.60;0.75;;;8.50;99.90;;;;;;5024078;28;20511;-82
2022/09/27 04:47:58;;;;;;;1.30;0.40;;;8.50;99.90;;;;;;5023540;28;20120;-83
2022/09/27 04:50:24;;;;;;;0.98;0.20;;;8.40;99.90;;;;;;5020057;28;20119;-82
2022/09/27 04:52:51;;;;;;;4.00;1.17;;;8.40;99.90;;;;;;5020440;28;20049;-81
2022/09/27 04:55:17;;;;;;;3.50;0.32;;;8.30;99.90;;;;;;5039794;28;20103;-83
2022/09/27 04:57:43;;;;;;;1.55;0.32;;;8.30;99.90;;;;;;5031486;28;20049;-82
2022/09/27 05:00:10;;;;;;;1.48;0.30;;;8.20;99.90;;;;;;5016570;28;20100;-83
2022/09/27 05:02:35;;;;;;;1.63;0.30;;;8.20;99.90;;;;;;5001949;28;20123;-82
2022/09/27 05:05:01;;;;;;;1.50;0.30;;;8.20;99.90;;;;;;5012626;28;20128;-81
2022/09/27 05:07:27;;;;;;;13.35;3.70;;;8.10;99.90;;;;;;5050495;28;20056;-81
2022/09/27 05:09:53;;;;;;;4.45;1.90;;;8.10;99.90;;;;;;5029422;28;20049;-82
2022/09/27 05:12:20;;;;;;;1.45;0.70;;;8.10;99.90;;;;;;5040725;28;20041;-82
2022/09/27 05:14:45;;;;;;;2.92;0.60;;;8.00;99.90;;;;;;5037072;28;20040;-82
2022/09/27 05:17:12;;;;;;;3.65;0.70;;;7.90;99.90;;;;;;5029709;28;20052;-83
2022/09/27 05:19:38;;;;;;;2.22;1.08;;;7.90;99.90;;;;;;5030184;28;20515;-81
2022/09/27 05:22:05;;;;;;;0.93;0.43;;;7.90;99.90;;;;;;5023831;28;20076;-81
2022/09/27 05:24:32;;;;;;;1.42;0.82;;;7.80;99.90;;;;;;5045267;28;20069;-83
2022/09/27 05:26:59;;;;;;;2.55;0.40;;;7.80;99.90;;;;;;5015071;28;20042;-82
2022/09/27 05:29:25;;;;;;;1.25;0.32;;;7.80;99.90;;;;;;5001278;28;20082;-82
2022/09/27 05:31:51;;;;;;;2.42;0.63;;;7.80;99.90;;;;;;5028078;28;20053;-82
2022/09/27 05:34:19;;;;;;;8.73;3.90;;;7.80;99.90;;;;;;5014063;28;20037;-81
2022/09/27 05:36:47;;;;;;;24.58;9.73;;;7.70;99.90;;;;;;5035643;28;20047;-81
2022/09/27 05:39:15;;;;;;;4.35;2.10;;;7.70;99.90;;;;;;5035477;28;20063;-83
2022/09/27 05:41:41;;;;;;;3.08;1.77;;;7.80;99.90;;;;;;5017174;28;20147;-81
2022/09/27 05:44:07;;;;;;;2.33;0.80;;;7.60;99.90;;;;;;5017140;28;20495;-81
2022/09/27 05:46:32;;;;;;;2.30;0.82;;;7.70;99.90;;;;;;5048526;28;20050;-82
2022/09/27 05:48:58;;;;;;;2.08;0.60;;;7.60;99.90;;;;;;5000810;28;20046;-82
2022/09/27 05:51:24;;;;;;;3.58;1.13;;;7.60;99.90;;;;;;5012888;28;20044;-83
2022/09/27 05:53:49;;;;;;;3.03;0.93;;;7.60;99.90;;;;;;5031258;28;20107;-82
2022/09/27 05:56:16;;;;;;;2.25;0.40;;;7.60;99.90;;;;;;5044313;28;20111;-83
2022/09/27 05:58:42;;;;;;;2.08;0.50;;;7.60;99.90;;;;;;5042466;28;20052;-84
2022/09/27 06:01:08;;;;;;;0.50;0.40;;;7.70;99.90;;;;;;5005838;28;20048;-82
2022/09/27 06:03:35;;;;;;;1.73;0.47;;;7.60;99.90;;;;;;5040371;28;20514;-82
2022/09/27 06:06:05;;;;;;;1.23;0.30;;;7.60;99.90;;;;;;5023340;28;20045;-86
2022/09/27 06:08:38;;;;;;;3.78;0.70;;;7.70;99.90;;;;;;5043870;28;20526;-81
2022/09/27 06:11:10;;;;;;;11.25;0.70;;;7.60;99.90;;;;;;5005500;28;20057;-81
2022/09/27 06:13:36;;;;;;;4.18;0.70;;;7.70;99.90;;;;;;5033670;28;20049;-81
2022/09/27 06:16:02;;;;;;;1.35;0.80;;;7.70;99.90;;;;;;5042089;28;20149;-82
2022/09/27 06:18:28;;;;;;;2.53;0.40;;;7.70;99.90;;;;;;5030829;28;20128;-82
2022/09/27 06:20:54;;;;;;;6.00;0.50;;;7.80;99.90;;;;;;5019164;28;20128;-84
2022/09/27 06:23:22;;;;;;;1.73;0.57;;;7.80;99.90;;;;;;5012739;28;20147;-82
2022/09/27 06:25:49;;;;;;;1.90;0.50;;;7.90;99.90;;;;;;5031713;28;20444;-84
2022/09/27 06:28:16;;;;;;;4.45;0.80;;;8.00;99.90;;;;;;5033119;28;20071;-81
2022/09/27 06:30:45;;;;;;;2.33;0.95;;;8.10;99.90;;;;;;5030539;28;20053;-82
2022/09/27 06:33:19;;;;;;;0.93;0.50;;;8.10;99.90;;;;;;5012196;28;20048;-81
2022/09/27 06:35:45;;;;;;;7.13;1.88;;;8.20;99.90;;;;;;5034555;28;20049;-82
2022/09/27 06:38:15;;;;;;;5.57;2.63;;;8.30;99.90;;;;;;5031779;28;20041;-84
2022/09/27 06:40:44;;;;;;;7.97;2.08;;;8.30;99.90;;;;;;5013412;28;20061;-84
2022/09/27 06:43:12;;;;;;;3.95;1.02;;;8.40;99.90;;;;;;5017564;28;20080;-85
2022/09/27 06:45:38;;;;;;;5.00;0.90;;;8.60;99.90;;;;;;5014373;28;20050;-84
2022/09/27 06:48:06;;;;;;;2.65;0.70;;;8.70;99.90;;;;;;5035669;28;20048;-81
2022/09/27 06:50:35;;;;;;;5.78;0.98;;;8.80;99.90;;;;;;5017998;28;20053;-81
2022/09/27 06:53:02;;;;;;;2.65;0.75;;;8.90;99.90;;;;;;5035858;28;20045;-81
2022/09/27 06:55:27;;;;;;;4.60;0.60;;;9.00;99.90;;;;;;5021772;28;20394;-80
2022/09/27 07:00:42;;;;;;;3.30;0.63;;;9.10;99.90;;;;;;4998105;28;20057;-81
2022/09/27 07:03:12;;;;;;;1.58;0.40;;;9.20;99.90;;;;;;5015815;28;20060;-81
2022/09/27 07:05:38;;;;;;;5.20;1.88;;;9.20;99.90;;;;;;5015736;28;20081;-81
2022/09/27 07:08:04;;;;;;;8.50;2.65;;;9.20;99.90;;;;;;5000522;28;20104;-81
2022/09/27 07:10:33;;;;;;;2.30;0.57;;;9.20;99.90;;;;;;5040402;28;20037;-80
2022/09/27 07:13:10;;;;;;;0.40;0.30;;;9.30;99.90;;;;;;5037405;28;20132;-81
2022/09/27 07:15:40;;;;;;;1.35;0.25;;;9.30;99.90;;;;;;5018741;28;20095;-82
2022/09/27 07:18:07;;;;;;;0.95;0.35;;;9.40;99.90;;;;;;5011475;28;20049;-82
2022/09/27 07:20:36;;;;;;;1.60;0.47;;;9.40;99.90;;;;;;5016291;28;20049;-81
2022/09/27 07:23:03;;;;;;;3.40;0.65;;;9.70;99.90;;;;;;5017286;28;20412;-81
2022/09/27 07:25:29;;;;;;;1.25;0.30;;;10.00;99.90;;;;;;5025918;28;20048;-80
2022/09/27 07:28:03;;;;;;;1.67;0.22;;;10.20;99.90;;;;;;5036822;28;20042;-81
2022/09/27 07:30:29;;;;;;;0.20;0.20;;;10.20;99.90;;;;;;5032940;28;20041;-82
2022/09/27 07:33:02;;;;;;;12.85;5.55;;;10.10;99.90;;;;;;5038962;28;20050;-82
2022/09/27 07:35:27;;;;;;;1.50;0.30;;;10.10;99.90;;;;;;5041110;28;20399;-82
2022/09/27 07:37:55;;;;;;;0.47;0.28;;;10.10;99.90;;;;;;5038423;28;20050;-81
2022/09/27 07:40:21;;;;;;;2.13;0.40;;;10.30;99.90;;;;;;5014334;28;20053;-83
2022/09/27 07:42:53;;;;;;;1.70;0.32;;;10.50;99.90;;;;;;5022007;28;20092;-81
2022/09/27 07:45:18;;;;;;;1.05;0.20;;;10.70;99.90;;;;;;5036602;28;20063;-82
2022/09/27 07:47:44;;;;;;;4.93;0.30;;;11.00;99.90;;;;;;5034077;28;20540;-83
2022/09/27 07:50:10;;;;;;;2.10;0.35;;;11.10;99.90;;;;;;5033471;28;20060;-81
2022/09/27 07:52:40;;;;;;;1.67;0.65;;;11.10;99.90;;;;;;5005429;28;20080;-81
2022/09/27 07:55:12;;;;;;;0.20;0.10;;;11.10;99.90;;;;;;5034261;28;20046;-81
2022/09/27 07:57:38;;;;;;;0.38;0.17;;;11.10;99.90;;;;;;5009076;28;20136;-80
2022/09/27 08:00:06;;;;;;;0.98;0.20;;;11.10;99.90;;;;;;5024726;28;20029;-82
2022/09/27 08:02:32;;;;;;;3.17;0.25;;;11.10;99.90;;;;;;5014809;28;20048;-85
2022/09/27 08:04:58;;;;;;;5.82;0.32;;;11.30;99.90;;;;;;5030195;28;20037;-83
2022/09/27 08:07:24;;;;;;;1.55;0.77;;;11.40;99.90;;;;;;5005076;28;20492;-81
2022/09/27 08:09:50;;;;;;;0.45;0.20;;;11.50;99.90;;;;;;5036239;28;20049;-82
2022/09/27 08:12:16;;;;;;;1.75;0.10;;;11.50;99.90;;;;;;5036716;28;20045;-82
2022/09/27 08:14:42;;;;;;;2.25;0.20;;;11.50;99.90;;;;;;5037147;28;20515;-83
2022/09/27 08:17:11;;;;;;;0.90;0.15;;;11.60;99.90;;;;;;5038983;28;20080;-81
2022/09/27 08:19:38;;;;;;;2.60;0.52;;;11.70;99.90;;;;;;5003273;28;20404;-81
2022/09/27 08:22:04;;;;;;;2.97;0.30;;;11.80;99.90;;;;;;5040825;28;20120;-83
2022/09/27 08:24:30;;;;;;;2.53;0.20;;;11.90;99.90;;;;;;5017550;28;20124;-81
2022/09/27 08:26:56;;;;;;;1.70;0.20;;;12.10;99.90;;;;;;5016206;28;20072;-82
2022/09/27 08:29:22;;;;;;;2.20;0.20;;;12.30;99.90;;;;;;5025446;28;20472;-82
2022/09/27 08:31:50;;;;;;;2.10;0.20;;;12.30;99.90;;;;;;5038118;28;20123;-82
2022/09/27 08:34:15;;;;;;;2.67;0.28;;;12.50;99.90;;;;;;5036068;28;20049;-83
2022/09/27 08:36:42;;;;;;;2.70;0.43;;;12.60;99.90;;;;;;5024064;28;20136;-85
2022/09/27 08:39:08;;;;;;;0.90;0.20;;;12.60;99.90;;;;;;5023779;28;20076;-82
2022/09/27 08:41:40;;;;;;;1.55;0.30;;;12.70;99.90;;;;;;5038912;28;20116;-82
2022/09/27 08:44:15;;;;;;;1.10;0.40;;;13.00;99.90;;;;;;5019013;28;20042;-83
2022/09/27 08:46:50;;;;;;;1.50;0.22;;;13.00;99.90;;;;;;5021241;28;20060;-88
2022/09/27 08:49:26;;;;;;;1.45;0.17;;;12.80;99.90;;;;;;5013786;28;20049;-83
2022/09/27 08:51:53;;;;;;;1.02;0.10;;;12.70;99.90;;;;;;5024393;28;20042;-83
2022/09/27 08:54:29;;;;;;;0.30;0.10;;;12.60;99.90;;;;;;5012857;28;20033;-82
2022/09/27 08:57:18;;;;;;;1.75;0.35;;;12.60;99.90;;;;;;5015746;28;20049;-83
2022/09/27 09:00:10;;;;;;;0.63;0.15;;;12.70;99.90;;;;;;5020191;28;20053;-84
2022/09/27 09:02:36;;;;;;;0.55;0.35;;;12.90;99.90;;;;;;5007691;28;20132;-84
2022/09/27 09:05:06;;;;;;;2.30;0.32;;;13.00;99.90;;;;;;5015153;28;20128;-82
2022/09/27 09:07:51;;;;;;;2.63;0.20;;;12.90;99.90;;;;;;5032253;28;20053;-82
2022/09/27 09:13:41;;;;;;;0.68;0.25;;;13.20;99.90;;;;;;5021259;28;20423;-90
2022/09/27 09:16:42;;;;;;;2.90;0.20;;;13.40;99.90;;;;;;5031432;28;20605;-82
2022/09/27 09:19:22;;;;;;;2.10;0.38;;;13.50;99.90;;;;;;5035478;28;20095;-83
2022/09/27 09:22:27;;;;;;;2.17;0.55;;;13.50;99.90;;;;;;5019274;28;20049;-83
2022/09/27 09:25:33;;;;;;;1.13;0.20;;;13.10;99.90;;;;;;5016340;28;20503;-83
2022/09/27 09:28:11;;;;;;;1.85;0.20;;;12.40;99.90;;;;;;4990073;28;20069;-83
2022/09/27 09:31:03;;;;;;;2.20;0.20;;;11.90;99.90;;;;;;5033374;28;20045;-81
2022/09/27 09:33:40;;;;;;;0.73;0.37;;;11.60;99.90;;;;;;5036639;28;20132;-87
2022/09/27 09:36:29;;;;;;;2.63;0.52;;;11.30;99.90;;;;;;5036239;28;20080;-82
2022/09/27 09:39:01;;;;;;;1.58;0.65;;;11.30;99.90;;;;;;4979785;28;20135;-84
2022/09/27 09:41:33;;;;;;;1.55;0.20;;;11.20;99.90;;;;;;5027716;28;20057;-82
2022/09/27 09:44:20;;;;;;;0.68;0.10;;;11.10;99.90;;;;;;5018573;28;20057;-87
2022/09/27 09:46:52;;;;;;;0.80;0.10;;;11.20;99.90;;;;;;5038268;28;20095;-83
2022/09/27 09:49:42;;;;;;;0.00;0.00;;;11.20;99.90;;;;;;5024535;28;20128;-83
2022/09/27 09:52:17;;;;;;;0.10;0.10;;;11.20;99.90;;;;;;5036219;28;20048;-85
2022/09/27 09:54:43;;;;;;;0.95;0.10;;;11.30;99.90;;;;;;5018861;28;20120;-83
2022/09/27 09:57:12;;;;;;;1.08;0.10;;;11.40;99.90;;;;;;5005133;28;20124;-84
2022/09/27 10:00:17;;;;;;;1.42;0.20;;;11.50;99.90;;;;;;5018354;28;20046;-84
2022/09/27 10:02:45;;;;;;;0.52;0.15;;;11.50;99.90;;;;;;4944824;28;20514;-83
2022/09/27 10:05:17;;;;;;;1.27;0.25;;;11.50;99.90;;;;;;4963068;28;20047;-83
2022/09/27 10:07:44;;;;;;;1.27;0.10;;;11.50;99.90;;;;;;4996957;28;20056;-84
2022/09/27 10:10:15;;;;;;;1.60;0.20;;;11.50;99.90;;;;;;5010615;28;20044;-86
2022/09/27 10:12:42;;;;;;;1.35;0.57;;;11.50;99.90;;;;;;4991278;28;20475;-82
2022/09/27 10:15:20;;;;;;;0.88;0.20;;;11.50;99.90;;;;;;5011304;28;20037;-84
2022/09/27 10:17:49;;;;;;;1.13;0.20;;;11.50;99.90;;;;;;5015031;28;20058;-82
2022/09/27 10:20:28;;;;;;;0.63;0.20;;;11.50;99.90;;;;;;5032368;28;20052;-82
2022/09/27 10:23:03;;;;;;;1.40;0.10;;;11.70;99.90;;;;;;5014952;28;20045;-82
2022/09/27 10:25:46;;;;;;;1.95;0.95;;;12.00;99.90;;;;;;5031675;28;20510;-83
2022/09/27 10:28:31;;;;;;;0.65;0.10;;;12.20;99.90;;;;;;5013726;28;20045;-85
2022/09/27 10:31:03;;;;;;;1.08;0.13;;;12.40;99.90;;;;;;5015214;28;20104;-84
2022/09/27 10:33:30;;;;;;;1.90;0.30;;;12.50;99.90;;;;;;5049365;28;20036;-83
2022/09/27 10:35:57;;;;;;;0.60;0.28;;;12.60;99.90;;;;;;5029512;28;20050;-82
2022/09/27 10:38:29;;;;;;;0.45;0.28;;;12.70;99.90;;;;;;5013749;28;20060;-85
2022/09/27 10:40:57;;;;;;;0.70;0.15;;;12.80;99.90;;;;;;5032145;28;20057;-83
2022/09/27 10:43:29;;;;;;;0.60;0.20;;;12.80;99.90;;;;;;5007441;28;20077;-83
2022/09/27 10:46:07;;;;;;;;;;;12.80;99.90;;;;;;5031809;28;20052;-83
2022/09/27 10:48:34;;;;;;;1.08;0.55;;;12.90;99.90;;;;;;5003137;28;20359;-83
2022/09/27 10:51:30;;;;;;;1.65;0.22;;;12.90;99.90;;;;;;5014336;28;20460;-83
2022/09/27 10:54:00;;;;;;;0.80;0.50;;;13.10;99.90;;;;;;4997982;28;20112;-82
2022/09/27 10:56:32;;;;;;;2.30;0.20;;;13.10;99.90;;;;;;5021098;28;20113;-83
2022/09/27 10:58:58;;;;;;;;;;;13.10;99.90;;;;;;5017166;28;20041;-84
2022/09/27 11:01:36;;;;;;;0.10;0.10;;;12.70;99.90;;;;;;5051895;28;19931;-82
2022/09/27 11:04:03;;;;;;;0.50;0.20;;;12.40;99.90;;;;;;5018147;28;20460;-82
2022/09/27 11:06:36;;;;;;;1.00;0.20;;;12.10;99.90;;;;;;5030991;28;20108;-83
2022/09/27 11:09:26;;;;;;;2.72;0.90;;;11.90;99.90;;;;;;5016683;28;20080;-84
2022/09/27 11:12:12;;;;;;;0.00;0.00;;;11.80;99.90;;;;;;5051848;28;20515;-82
2022/09/27 11:14:38;;;;;;;0.82;0.10;;;11.80;99.90;;;;;;5051815;28;20126;-84
2022/09/27 11:17:42;;;;;;;0.47;0.10;;;11.70;99.90;;;;;;5051640;28;20052;-83
2022/09/27 11:20:13;;;;;;;0.28;0.20;;;11.60;99.90;;;;;;5018801;28;20143;-82
2022/09/27 11:23:22;;;;;;;2.38;0.30;;;11.50;99.90;;;;;;5034147;28;20088;-83
2022/09/27 11:26:03;;;;;;;0.90;0.20;;;11.40;99.90;;;;;;5051495;28;20084;-82
2022/09/27 11:28:47;;;;;;;1.70;0.20;;;11.30;99.90;;;;;;5032657;28;20124;-82
2022/09/27 11:31:34;;;;;;;1.55;0.20;;;11.40;99.90;;;;;;5053166;28;20049;-83
2022/09/27 11:34:12;;;;;;;1.80;0.10;;;11.30;99.90;;;;;;5021392;28;20060;-83
2022/09/27 11:37:22;;;;;;;0.17;0.10;;;11.40;99.90;;;;;;5037393;28;20071;-83
2022/09/27 11:40:08;;;;;;;1.13;0.20;;;11.40;99.90;;;;;;4986402;28;20057;-82
2022/09/27 11:43:19;;;;;;;0.77;0.30;;;11.50;99.90;;;;;;5017769;28;20050;-83
2022/09/27 11:46:16;;;;;;;0.30;0.10;;;11.70;99.90;;;;;;4987765;28;20118;-83
2022/09/27 11:49:01;;;;;;;1.65;0.10;;;11.80;99.90;;;;;;5034107;28;20129;-84
2022/09/27 11:51:53;;;;;;;0.38;0.10;;;11.90;99.90;;;;;;5023019;28;20041;-83
2022/09/27 11:54:34;;;;;;;1.35;0.17;;;12.00;99.90;;;;;;5036963;28;20076;-83
2022/09/27 11:57:25;;;;;;;0.75;0.13;;;12.10;99.90;;;;;;5020654;28;20057;-82
2022/09/27 12:00:20;;;;;;;0.20;0.10;;;12.20;99.90;;;;;;5037303;28;20080;-83
2022/09/27 12:02:55;;;;;;;0.25;0.00;;;12.20;99.90;;;;;;5009364;28;20068;-83
2022/09/27 12:05:26;;;;;;;0.60;0.03;;;12.20;99.90;;;;;;5017000;28;20084;-83
2022/09/27 12:07:52;;;;;;;1.08;0.10;;;12.20;99.90;;;;;;5017484;28;20045;-84
2022/09/27 12:10:21;;;;;;;1.00;0.10;;;12.20;99.90;;;;;;5018555;28;20546;-83
2022/09/27 12:12:52;;;;;;;0.75;0.10;;;12.30;99.90;;;;;;5036232;28;20253;-82
2022/09/27 12:15:23;;;;;;;1.75;0.10;;;12.30;99.90;;;;;;5002048;28;20056;-82
2022/09/27 12:17:54;;;;;;;3.03;0.17;;;12.30;99.90;;;;;;5035580;28;20099;-82
2022/09/27 12:20:30;;;;;;;2.83;0.30;;;12.40;99.90;;;;;;5034617;28;20479;-83
2022/09/27 12:23:06;;;;;;;2.60;0.80;;;12.50;99.90;;;;;;5034325;28;20049;-82
2022/09/27 12:25:36;;;;;;;2.10;0.47;;;12.50;99.90;;;;;;5034213;28;20057;-84
2022/09/27 12:28:11;;;;;;;0.55;0.32;;;12.60;99.90;;;;;;5016689;28;20073;-83
2022/09/27 12:30:41;;;;;;;2.03;0.38;;;12.60;99.90;;;;;;5050091;28;20132;-82
2022/09/27 12:33:22;;;;;;;4.25;0.55;;;12.80;99.90;;;;;;5017673;28;20049;-83
2022/09/27 12:35:53;;;;;;;3.63;0.47;;;13.00;99.90;;;;;;5034196;28;20523;-83
2022/09/27 12:38:39;;;;;;;2.80;0.55;;;13.10;99.90;;;;;;5034163;28;20499;-83
2022/09/27 12:41:08;;;;;;;1.45;0.45;;;13.20;99.90;;;;;;5016681;28;20389;-83
2022/09/27 12:43:34;;;;;;;2.92;0.38;;;13.30;99.90;;;;;;5035574;28;20099;-83
2022/09/27 12:46:44;;;;;;;3.38;0.40;;;13.40;99.90;;;;;;5053624;28;20040;-83
2022/09/27 12:49:44;;;;;;;1.40;0.30;;;13.40;99.90;;;;;;4937429;29;20054;-83
2022/09/27 12:52:14;;;;;;;2.85;0.30;;;13.50;99.90;;;;;;4937721;29;20208;-83
2022/09/27 12:54:49;;;;;;;0.57;0.20;;;13.60;99.90;;;;;;5015465;28;20053;-83
2022/09/27 12:57:45;;;;;;;1.77;0.40;;;13.80;99.90;;;;;;5016522;28;20061;-83
2022/09/27 13:00:24;;;;;;;0.30;0.30;;;14.10;99.90;;;;;;5016556;28;20049;-83
2022/09/27 13:02:59;;;;;;;2.65;0.35;;;14.20;99.90;;;;;;5033771;28;20123;-84
2022/09/27 13:06:12;;;;;;;0.98;0.40;;;14.10;99.90;;;;;;5033335;28;20034;-83
2022/09/27 13:09:05;;;;;;;3.97;0.40;;;13.90;99.90;;;;;;4973135;28;20522;-83
2022/09/27 13:11:42;;;;;;;0.70;0.10;;;13.60;99.90;;;;;;5016016;28;20053;-83
2022/09/27 13:14:17;;;;;;;0.43;0.10;;;13.30;99.90;;;;;;5015165;28;20065;-83
2022/09/27 13:16:45;;;;;;;2.08;0.22;;;13.10;99.90;;;;;;5037970;28;20140;-85
2022/09/27 13:19:34;;;;;;;1.35;0.65;;;12.90;99.90;;;;;;5033864;28;20115;-83
2022/09/27 13:22:00;;;;;;;1.02;0.13;;;13.00;99.90;;;;;;5038933;28;20139;-83
2022/09/27 13:24:31;;;;;;;1.38;0.30;;;13.10;99.90;;;;;;5035034;28;20044;-84
2022/09/27 13:27:00;;;;;;;1.55;0.22;;;13.20;99.90;;;;;;5036566;28;20117;-84
2022/09/27 13:29:28;;;;;;;1.42;0.20;;;13.20;99.90;;;;;;5034172;28;20052;-84
2022/09/27 13:31:56;;;;;;;0.98;0.20;;;13.30;99.90;;;;;;5053081;28;20045;-83
2022/09/27 13:34:42;;;;;;;5.97;0.63;;;13.30;99.90;;;;;;5035378;28;20091;-86